sensor_id;sensor_type;location;lat;lon;timestamp;P1;durP1;ratioP1;P2;durP2;ratioP2
3571;SDS011;7958;53.024;12.970;2023-02-12T00:00:53;11.57;;;4.13;;
3571;SDS011;7958;53.024;12.970;2023-02-12T00:03:19;11.77;;;2.97;;
3571;SDS011;7958;53.024;12.970;2023-02-12T00:05:47;14.80;;;3.00;;
3571;SDS011;7958;53.024;12.970;2023-02-12T00:08:13;7.03;;;2.90;;
3571;SDS011;7958;53.024;12.970;2023-02-12T00:10:40;9.90;;;2.90;;
3571;SDS011;7958;53.024;12.970;2023-02-12T00:13:07;7.10;;;2.70;;
3571;SDS011;7958;53.024;12.970;2023-02-12T00:15:36;12.57;;;3.33;;
3571;SDS011;7958;53.024;12.970;2023-02-12T00:18:03;6.73;;;2.13;;
3571;SDS011;7958;53.024;12.970;2023-02-12T00:20:29;10.80;;;2.80;;
3571;SDS011;7958;53.024;12.970;2023-02-12T00:22:57;7.80;;;2.60;;
3571;SDS011;7958;53.024;12.970;2023-02-12T00:25:23;7.03;;;2.70;;
3571;SDS011;7958;53.024;12.970;2023-02-12T00:27:50;12.67;;;2.87;;
3571;SDS011;7958;53.024;12.970;2023-02-12T00:30:17;11.43;;;3.00;;
3571;SDS011;7958;53.024;12.970;2023-02-12T00:32:44;7.67;;;2.47;;
3571;SDS011;7958;53.024;12.970;2023-02-12T00:35:10;11.83;;;2.97;;
3571;SDS011;7958;53.024;12.970;2023-02-12T00:37:37;8.63;;;3.13;;
3571;SDS011;7958;53.024;12.970;2023-02-12T00:40:05;10.70;;;2.80;;
3571;SDS011;7958;53.024;12.970;2023-02-12T00:42:33;14.53;;;2.97;;
3571;SDS011;7958;53.024;12.970;2023-02-12T00:44:59;11.80;;;3.53;;
3571;SDS011;7958;53.024;12.970;2023-02-12T00:47:25;13.63;;;3.00;;
3571;SDS011;7958;53.024;12.970;2023-02-12T00:49:52;10.00;;;2.63;;
3571;SDS011;7958;53.024;12.970;2023-02-12T00:52:18;5.23;;;2.67;;
3571;SDS011;7958;53.024;12.970;2023-02-12T00:54:45;15.97;;;2.83;;
3571;SDS011;7958;53.024;12.970;2023-02-12T00:57:12;11.30;;;2.57;;
3571;SDS011;7958;53.024;12.970;2023-02-12T00:59:39;5.90;;;2.70;;
3571;SDS011;7958;53.024;12.970;2023-02-12T01:02:06;13.67;;;3.63;;
3571;SDS011;7958;53.024;12.970;2023-02-12T01:04:33;10.40;;;3.00;;
3571;SDS011;7958;53.024;12.970;2023-02-12T01:06:59;13.90;;;3.20;;
3571;SDS011;7958;53.024;12.970;2023-02-12T01:09:26;13.27;;;2.93;;
3571;SDS011;7958;53.024;12.970;2023-02-12T01:11:52;9.13;;;2.50;;
3571;SDS011;7958;53.024;12.970;2023-02-12T01:14:20;12.70;;;2.80;;
3571;SDS011;7958;53.024;12.970;2023-02-12T01:16:46;11.83;;;3.03;;
3571;SDS011;7958;53.024;12.970;2023-02-12T01:19:12;11.83;;;2.43;;
3571;SDS011;7958;53.024;12.970;2023-02-12T01:21:39;8.40;;;2.80;;
3571;SDS011;7958;53.024;12.970;2023-02-12T01:24:05;7.47;;;2.40;;
3571;SDS011;7958;53.024;12.970;2023-02-12T01:26:32;10.03;;;3.00;;
3571;SDS011;7958;53.024;12.970;2023-02-12T01:29:00;8.60;;;3.67;;
3571;SDS011;7958;53.024;12.970;2023-02-12T01:31:29;11.80;;;3.20;;
3571;SDS011;7958;53.024;12.970;2023-02-12T01:33:58;6.50;;;2.80;;
3571;SDS011;7958;53.024;12.970;2023-02-12T01:36:25;14.53;;;3.57;;
3571;SDS011;7958;53.024;12.970;2023-02-12T01:38:52;13.70;;;2.77;;
3571;SDS011;7958;53.024;12.970;2023-02-12T01:41:19;11.57;;;3.00;;
3571;SDS011;7958;53.024;12.970;2023-02-12T01:46:34;10.73;;;3.00;;
3571;SDS011;7958;53.024;12.970;2023-02-12T01:49:00;11.00;;;3.00;;
3571;SDS011;7958;53.024;12.970;2023-02-12T01:51:28;10.00;;;3.20;;
3571;SDS011;7958;53.024;12.970;2023-02-12T01:53:55;9.73;;;3.10;;
3571;SDS011;7958;53.024;12.970;2023-02-12T01:56:25;15.60;;;3.50;;
3571;SDS011;7958;53.024;12.970;2023-02-12T01:58:52;15.93;;;3.70;;
3571;SDS011;7958;53.024;12.970;2023-02-12T02:01:22;10.67;;;3.10;;
3571;SDS011;7958;53.024;12.970;2023-02-12T02:03:53;18.07;;;4.03;;
3571;SDS011;7958;53.024;12.970;2023-02-12T02:06:21;10.33;;;3.30;;
3571;SDS011;7958;53.024;12.970;2023-02-12T02:08:51;16.00;;;3.23;;
3571;SDS011;7958;53.024;12.970;2023-02-12T02:11:18;9.83;;;3.60;;
3571;SDS011;7958;53.024;12.970;2023-02-12T02:14:02;14.70;;;3.90;;
3571;SDS011;7958;53.024;12.970;2023-02-12T02:16:49;10.80;;;3.63;;
3571;SDS011;7958;53.024;12.970;2023-02-12T02:19:27;11.17;;;2.50;;
3571;SDS011;7958;53.024;12.970;2023-02-12T02:22:11;11.97;;;3.20;;
3571;SDS011;7958;53.024;12.970;2023-02-12T02:24:56;10.60;;;3.10;;
3571;SDS011;7958;53.024;12.970;2023-02-12T02:27:44;12.00;;;2.97;;
3571;SDS011;7958;53.024;12.970;2023-02-12T02:30:21;13.70;;;3.00;;
3571;SDS011;7958;53.024;12.970;2023-02-12T02:33:11;9.53;;;3.27;;
3571;SDS011;7958;53.024;12.970;2023-02-12T02:35:43;11.93;;;3.30;;
3571;SDS011;7958;53.024;12.970;2023-02-12T02:38:18;11.93;;;3.87;;
3571;SDS011;7958;53.024;12.970;2023-02-12T02:40:48;15.23;;;3.60;;
3571;SDS011;7958;53.024;12.970;2023-02-12T02:43:19;13.03;;;2.90;;
3571;SDS011;7958;53.024;12.970;2023-02-12T02:45:49;17.47;;;3.40;;
3571;SDS011;7958;53.024;12.970;2023-02-12T02:48:18;8.23;;;2.77;;
3571;SDS011;7958;53.024;12.970;2023-02-12T02:50:48;9.67;;;3.13;;
3571;SDS011;7958;53.024;12.970;2023-02-12T02:53:18;19.63;;;4.30;;
3571;SDS011;7958;53.024;12.970;2023-02-12T02:55:48;20.00;;;3.67;;
3571;SDS011;7958;53.024;12.970;2023-02-12T02:58:17;8.57;;;2.70;;
3571;SDS011;7958;53.024;12.970;2023-02-12T03:00:47;9.10;;;3.40;;
3571;SDS011;7958;53.024;12.970;2023-02-12T03:03:17;12.00;;;3.10;;
3571;SDS011;7958;53.024;12.970;2023-02-12T03:05:48;9.67;;;3.67;;
3571;SDS011;7958;53.024;12.970;2023-02-12T03:08:18;14.90;;;3.47;;
3571;SDS011;7958;53.024;12.970;2023-02-12T03:10:48;13.47;;;3.03;;
3571;SDS011;7958;53.024;12.970;2023-02-12T03:13:19;11.47;;;3.93;;
3571;SDS011;7958;53.024;12.970;2023-02-12T03:15:50;17.20;;;3.30;;
3571;SDS011;7958;53.024;12.970;2023-02-12T03:18:19;19.40;;;4.37;;
3571;SDS011;7958;53.024;12.970;2023-02-12T03:20:47;14.43;;;3.90;;
3571;SDS011;7958;53.024;12.970;2023-02-12T03:23:20;14.00;;;3.43;;
3571;SDS011;7958;53.024;12.970;2023-02-12T03:25:51;16.37;;;3.10;;
3571;SDS011;7958;53.024;12.970;2023-02-12T03:28:21;12.37;;;3.70;;
3571;SDS011;7958;53.024;12.970;2023-02-12T03:30:53;15.40;;;3.30;;
3571;SDS011;7958;53.024;12.970;2023-02-12T03:33:26;6.80;;;2.70;;
3571;SDS011;7958;53.024;12.970;2023-02-12T03:35:56;10.43;;;2.90;;
3571;SDS011;7958;53.024;12.970;2023-02-12T03:38:29;20.13;;;3.90;;
3571;SDS011;7958;53.024;12.970;2023-02-12T03:41:02;9.10;;;3.07;;
3571;SDS011;7958;53.024;12.970;2023-02-12T03:43:32;18.17;;;3.20;;
3571;SDS011;7958;53.024;12.970;2023-02-12T03:46:05;19.00;;;3.90;;
3571;SDS011;7958;53.024;12.970;2023-02-12T03:48:40;7.77;;;3.30;;
3571;SDS011;7958;53.024;12.970;2023-02-12T03:51:09;13.93;;;3.83;;
3571;SDS011;7958;53.024;12.970;2023-02-12T03:53:42;6.73;;;2.43;;
3571;SDS011;7958;53.024;12.970;2023-02-12T03:56:09;14.30;;;3.03;;
3571;SDS011;7958;53.024;12.970;2023-02-12T03:58:37;12.07;;;3.37;;
3571;SDS011;7958;53.024;12.970;2023-02-12T04:01:08;11.73;;;3.40;;
3571;SDS011;7958;53.024;12.970;2023-02-12T04:03:34;13.47;;;3.63;;
3571;SDS011;7958;53.024;12.970;2023-02-12T04:06:01;11.13;;;3.50;;
3571;SDS011;7958;53.024;12.970;2023-02-12T04:08:28;15.07;;;3.10;;
3571;SDS011;7958;53.024;12.970;2023-02-12T04:10:56;11.77;;;3.17;;
3571;SDS011;7958;53.024;12.970;2023-02-12T04:13:27;6.50;;;2.60;;
3571;SDS011;7958;53.024;12.970;2023-02-12T04:16:01;8.87;;;3.10;;
3571;SDS011;7958;53.024;12.970;2023-02-12T04:18:39;12.40;;;3.07;;
3571;SDS011;7958;53.024;12.970;2023-02-12T04:21:11;8.30;;;2.97;;
3571;SDS011;7958;53.024;12.970;2023-02-12T04:23:42;14.93;;;3.00;;
3571;SDS011;7958;53.024;12.970;2023-02-12T04:26:19;9.17;;;2.90;;
3571;SDS011;7958;53.024;12.970;2023-02-12T04:28:51;8.13;;;3.43;;
3571;SDS011;7958;53.024;12.970;2023-02-12T04:31:26;9.77;;;2.90;;
3571;SDS011;7958;53.024;12.970;2023-02-12T04:33:58;9.57;;;3.27;;
3571;SDS011;7958;53.024;12.970;2023-02-12T04:36:37;8.83;;;3.03;;
3571;SDS011;7958;53.024;12.970;2023-02-12T04:39:07;10.23;;;3.40;;
3571;SDS011;7958;53.024;12.970;2023-02-12T04:41:36;17.17;;;3.43;;
3571;SDS011;7958;53.024;12.970;2023-02-12T04:44:16;11.03;;;3.17;;
3571;SDS011;7958;53.024;12.970;2023-02-12T04:46:46;8.13;;;3.07;;
3571;SDS011;7958;53.024;12.970;2023-02-12T04:49:14;12.47;;;2.73;;
3571;SDS011;7958;53.024;12.970;2023-02-12T04:51:41;14.40;;;3.50;;
3571;SDS011;7958;53.024;12.970;2023-02-12T04:54:08;11.23;;;3.07;;
3571;SDS011;7958;53.024;12.970;2023-02-12T04:56:35;6.03;;;2.60;;
3571;SDS011;7958;53.024;12.970;2023-02-12T04:59:02;10.97;;;2.50;;
3571;SDS011;7958;53.024;12.970;2023-02-12T05:01:28;14.40;;;3.20;;
3571;SDS011;7958;53.024;12.970;2023-02-12T05:03:56;7.43;;;3.27;;
3571;SDS011;7958;53.024;12.970;2023-02-12T05:06:23;10.73;;;3.30;;
3571;SDS011;7958;53.024;12.970;2023-02-12T05:08:51;6.93;;;2.87;;
3571;SDS011;7958;53.024;12.970;2023-02-12T05:11:18;11.63;;;3.13;;
3571;SDS011;7958;53.024;12.970;2023-02-12T05:13:46;18.87;;;3.60;;
3571;SDS011;7958;53.024;12.970;2023-02-12T05:16:13;9.97;;;3.70;;
3571;SDS011;7958;53.024;12.970;2023-02-12T05:18:40;11.63;;;4.00;;
3571;SDS011;7958;53.024;12.970;2023-02-12T05:21:08;10.53;;;3.03;;
3571;SDS011;7958;53.024;12.970;2023-02-12T05:23:35;13.43;;;3.47;;
3571;SDS011;7958;53.024;12.970;2023-02-12T05:26:05;13.20;;;3.50;;
3571;SDS011;7958;53.024;12.970;2023-02-12T05:28:32;9.20;;;3.07;;
3571;SDS011;7958;53.024;12.970;2023-02-12T05:30:59;13.17;;;3.30;;
3571;SDS011;7958;53.024;12.970;2023-02-12T05:33:26;20.20;;;4.40;;
3571;SDS011;7958;53.024;12.970;2023-02-12T05:35:53;13.53;;;4.20;;
3571;SDS011;7958;53.024;12.970;2023-02-12T05:38:21;15.50;;;3.37;;
3571;SDS011;7958;53.024;12.970;2023-02-12T05:40:47;8.57;;;3.60;;
3571;SDS011;7958;53.024;12.970;2023-02-12T05:43:13;16.13;;;3.00;;
3571;SDS011;7958;53.024;12.970;2023-02-12T05:45:40;6.20;;;2.67;;
3571;SDS011;7958;53.024;12.970;2023-02-12T05:48:08;13.13;;;3.57;;
3571;SDS011;7958;53.024;12.970;2023-02-12T05:50:36;14.10;;;4.40;;
3571;SDS011;7958;53.024;12.970;2023-02-12T05:53:02;13.17;;;3.83;;
3571;SDS011;7958;53.024;12.970;2023-02-12T05:55:31;10.63;;;3.13;;
3571;SDS011;7958;53.024;12.970;2023-02-12T05:57:57;12.03;;;3.67;;
3571;SDS011;7958;53.024;12.970;2023-02-12T06:00:24;10.27;;;3.03;;
3571;SDS011;7958;53.024;12.970;2023-02-12T06:02:50;14.97;;;3.87;;
3571;SDS011;7958;53.024;12.970;2023-02-12T06:05:16;11.73;;;3.17;;
3571;SDS011;7958;53.024;12.970;2023-02-12T06:07:43;11.77;;;2.33;;
3571;SDS011;7958;53.024;12.970;2023-02-12T06:10:10;14.47;;;3.83;;
3571;SDS011;7958;53.024;12.970;2023-02-12T06:12:38;10.33;;;3.53;;
3571;SDS011;7958;53.024;12.970;2023-02-12T06:15:05;6.80;;;2.73;;
3571;SDS011;7958;53.024;12.970;2023-02-12T06:17:32;9.40;;;3.10;;
3571;SDS011;7958;53.024;12.970;2023-02-12T06:19:59;12.47;;;3.67;;
3571;SDS011;7958;53.024;12.970;2023-02-12T06:22:26;15.60;;;3.40;;
3571;SDS011;7958;53.024;12.970;2023-02-12T06:24:53;17.40;;;5.73;;
3571;SDS011;7958;53.024;12.970;2023-02-12T06:27:19;12.70;;;3.60;;
3571;SDS011;7958;53.024;12.970;2023-02-12T06:29:47;14.60;;;3.20;;
3571;SDS011;7958;53.024;12.970;2023-02-12T06:32:14;7.03;;;3.23;;
3571;SDS011;7958;53.024;12.970;2023-02-12T06:34:40;12.93;;;3.73;;
3571;SDS011;7958;53.024;12.970;2023-02-12T06:37:06;10.70;;;3.63;;
3571;SDS011;7958;53.024;12.970;2023-02-12T06:39:33;9.80;;;3.27;;
3571;SDS011;7958;53.024;12.970;2023-02-12T06:42:00;15.93;;;3.67;;
3571;SDS011;7958;53.024;12.970;2023-02-12T06:44:26;14.87;;;5.83;;
3571;SDS011;7958;53.024;12.970;2023-02-12T06:46:54;11.97;;;3.70;;
3571;SDS011;7958;53.024;12.970;2023-02-12T06:49:22;8.40;;;3.27;;
3571;SDS011;7958;53.024;12.970;2023-02-12T06:51:48;8.87;;;3.33;;
3571;SDS011;7958;53.024;12.970;2023-02-12T06:54:16;10.90;;;3.43;;
3571;SDS011;7958;53.024;12.970;2023-02-12T06:56:43;13.47;;;3.27;;
3571;SDS011;7958;53.024;12.970;2023-02-12T06:59:11;13.77;;;3.50;;
3571;SDS011;7958;53.024;12.970;2023-02-12T07:01:39;17.60;;;4.00;;
3571;SDS011;7958;53.024;12.970;2023-02-12T07:04:08;17.00;;;3.83;;
3571;SDS011;7958;53.024;12.970;2023-02-12T07:06:34;9.80;;;3.30;;
3571;SDS011;7958;53.024;12.970;2023-02-12T07:09:01;8.33;;;3.20;;
3571;SDS011;7958;53.024;12.970;2023-02-12T07:11:29;6.13;;;3.10;;
3571;SDS011;7958;53.024;12.970;2023-02-12T07:13:57;11.07;;;4.10;;
3571;SDS011;7958;53.024;12.970;2023-02-12T07:16:23;12.47;;;4.40;;
3571;SDS011;7958;53.024;12.970;2023-02-12T07:18:52;12.83;;;4.07;;
3571;SDS011;7958;53.024;12.970;2023-02-12T07:21:21;20.13;;;5.57;;
3571;SDS011;7958;53.024;12.970;2023-02-12T07:23:48;23.20;;;5.80;;
3571;SDS011;7958;53.024;12.970;2023-02-12T07:26:15;18.30;;;6.33;;
3571;SDS011;7958;53.024;12.970;2023-02-12T07:28:42;13.07;;;6.30;;
3571;SDS011;7958;53.024;12.970;2023-02-12T07:31:10;18.30;;;6.13;;
3571;SDS011;7958;53.024;12.970;2023-02-12T07:33:37;21.33;;;6.20;;
3571;SDS011;7958;53.024;12.970;2023-02-12T07:36:05;21.47;;;5.97;;
3571;SDS011;7958;53.024;12.970;2023-02-12T07:38:36;13.60;;;4.30;;
3571;SDS011;7958;53.024;12.970;2023-02-12T07:41:08;15.63;;;3.50;;
3571;SDS011;7958;53.024;12.970;2023-02-12T07:43:36;12.30;;;3.77;;
3571;SDS011;7958;53.024;12.970;2023-02-12T07:46:07;17.70;;;4.83;;
3571;SDS011;7958;53.024;12.970;2023-02-12T07:48:34;7.67;;;3.13;;
3571;SDS011;7958;53.024;12.970;2023-02-12T07:51:04;15.00;;;4.87;;
3571;SDS011;7958;53.024;12.970;2023-02-12T07:53:32;14.27;;;3.80;;
3571;SDS011;7958;53.024;12.970;2023-02-12T07:56:09;9.80;;;4.10;;
3571;SDS011;7958;53.024;12.970;2023-02-12T07:58:37;15.57;;;4.30;;
3571;SDS011;7958;53.024;12.970;2023-02-12T08:01:10;15.23;;;6.20;;
3571;SDS011;7958;53.024;12.970;2023-02-12T08:03:38;26.80;;;5.30;;
3571;SDS011;7958;53.024;12.970;2023-02-12T08:06:06;14.57;;;5.13;;
3571;SDS011;7958;53.024;12.970;2023-02-12T08:08:33;15.67;;;5.87;;
3571;SDS011;7958;53.024;12.970;2023-02-12T08:10:59;13.93;;;5.40;;
3571;SDS011;7958;53.024;12.970;2023-02-12T08:13:27;12.20;;;4.80;;
3571;SDS011;7958;53.024;12.970;2023-02-12T08:15:58;14.20;;;5.27;;
3571;SDS011;7958;53.024;12.970;2023-02-12T08:18:25;20.90;;;5.43;;
3571;SDS011;7958;53.024;12.970;2023-02-12T08:20:51;13.23;;;4.70;;
3571;SDS011;7958;53.024;12.970;2023-02-12T08:23:17;8.73;;;4.53;;
3571;SDS011;7958;53.024;12.970;2023-02-12T08:25:44;11.93;;;4.93;;
3571;SDS011;7958;53.024;12.970;2023-02-12T08:28:10;11.10;;;4.67;;
3571;SDS011;7958;53.024;12.970;2023-02-12T08:30:38;16.63;;;4.77;;
3571;SDS011;7958;53.024;12.970;2023-02-12T08:33:05;18.80;;;4.80;;
3571;SDS011;7958;53.024;12.970;2023-02-12T08:35:31;9.83;;;4.77;;
3571;SDS011;7958;53.024;12.970;2023-02-12T08:37:58;9.87;;;4.30;;
3571;SDS011;7958;53.024;12.970;2023-02-12T08:40:24;14.27;;;4.60;;
3571;SDS011;7958;53.024;12.970;2023-02-12T08:42:51;16.90;;;6.17;;
3571;SDS011;7958;53.024;12.970;2023-02-12T08:45:17;12.07;;;5.30;;
3571;SDS011;7958;53.024;12.970;2023-02-12T08:47:45;13.20;;;5.70;;
3571;SDS011;7958;53.024;12.970;2023-02-12T08:50:12;12.10;;;4.60;;
3571;SDS011;7958;53.024;12.970;2023-02-12T08:52:39;10.60;;;3.83;;
3571;SDS011;7958;53.024;12.970;2023-02-12T08:55:05;13.00;;;4.97;;
3571;SDS011;7958;53.024;12.970;2023-02-12T08:57:32;9.50;;;4.87;;
3571;SDS011;7958;53.024;12.970;2023-02-12T08:59:59;13.97;;;5.10;;
3571;SDS011;7958;53.024;12.970;2023-02-12T09:02:28;12.80;;;4.90;;
3571;SDS011;7958;53.024;12.970;2023-02-12T09:04:57;7.67;;;4.73;;
3571;SDS011;7958;53.024;12.970;2023-02-12T09:07:23;16.27;;;4.93;;
3571;SDS011;7958;53.024;12.970;2023-02-12T09:09:49;13.03;;;4.87;;
3571;SDS011;7958;53.024;12.970;2023-02-12T09:12:16;14.17;;;4.40;;
3571;SDS011;7958;53.024;12.970;2023-02-12T09:14:42;9.47;;;3.77;;
3571;SDS011;7958;53.024;12.970;2023-02-12T09:17:09;19.13;;;5.40;;
3571;SDS011;7958;53.024;12.970;2023-02-12T09:19:35;15.53;;;5.57;;
3571;SDS011;7958;53.024;12.970;2023-02-12T09:22:03;10.60;;;4.67;;
3571;SDS011;7958;53.024;12.970;2023-02-12T09:24:29;15.90;;;5.20;;
3571;SDS011;7958;53.024;12.970;2023-02-12T09:26:57;12.00;;;5.20;;
3571;SDS011;7958;53.024;12.970;2023-02-12T09:29:23;9.93;;;3.80;;
3571;SDS011;7958;53.024;12.970;2023-02-12T09:31:50;9.00;;;4.30;;
3571;SDS011;7958;53.024;12.970;2023-02-12T09:34:16;7.47;;;3.60;;
3571;SDS011;7958;53.024;12.970;2023-02-12T09:36:44;7.57;;;3.77;;
3571;SDS011;7958;53.024;12.970;2023-02-12T09:39:12;5.77;;;3.30;;
3571;SDS011;7958;53.024;12.970;2023-02-12T09:41:45;5.97;;;3.17;;
3571;SDS011;7958;53.024;12.970;2023-02-12T09:44:21;7.43;;;3.33;;
3571;SDS011;7958;53.024;12.970;2023-02-12T09:46:52;7.60;;;2.90;;
3571;SDS011;7958;53.024;12.970;2023-02-12T09:49:25;5.10;;;2.83;;
3571;SDS011;7958;53.024;12.970;2023-02-12T09:52:04;3.00;;;2.07;;
3571;SDS011;7958;53.024;12.970;2023-02-12T09:54:36;3.50;;;2.40;;
3571;SDS011;7958;53.024;12.970;2023-02-12T09:57:04;3.53;;;2.33;;
3571;SDS011;7958;53.024;12.970;2023-02-12T09:59:33;10.80;;;3.53;;
3571;SDS011;7958;53.024;12.970;2023-02-12T10:02:01;3.70;;;2.40;;
3571;SDS011;7958;53.024;12.970;2023-02-12T10:04:28;3.00;;;2.27;;
3571;SDS011;7958;53.024;12.970;2023-02-12T10:06:57;3.03;;;2.27;;
3571;SDS011;7958;53.024;12.970;2023-02-12T10:09:31;3.00;;;2.10;;
3571;SDS011;7958;53.024;12.970;2023-02-12T10:12:06;3.10;;;2.00;;
3571;SDS011;7958;53.024;12.970;2023-02-12T10:14:43;2.67;;;1.97;;
3571;SDS011;7958;53.024;12.970;2023-02-12T10:17:18;3.50;;;2.90;;
3571;SDS011;7958;53.024;12.970;2023-02-12T10:19:56;8.27;;;6.40;;
3571;SDS011;7958;53.024;12.970;2023-02-12T10:22:31;6.47;;;2.83;;
3571;SDS011;7958;53.024;12.970;2023-02-12T10:25:04;3.83;;;2.60;;
3571;SDS011;7958;53.024;12.970;2023-02-12T10:27:37;5.30;;;3.00;;
3571;SDS011;7958;53.024;12.970;2023-02-12T10:30:12;2.80;;;2.20;;
3571;SDS011;7958;53.024;12.970;2023-02-12T10:32:40;3.87;;;3.00;;
3571;SDS011;7958;53.024;12.970;2023-02-12T10:35:11;3.03;;;2.10;;
3571;SDS011;7958;53.024;12.970;2023-02-12T10:37:39;4.97;;;2.23;;
3571;SDS011;7958;53.024;12.970;2023-02-12T10:40:14;3.83;;;2.13;;
3571;SDS011;7958;53.024;12.970;2023-02-12T10:42:43;4.27;;;1.70;;
3571;SDS011;7958;53.024;12.970;2023-02-12T10:45:11;3.90;;;1.70;;
3571;SDS011;7958;53.024;12.970;2023-02-12T10:47:39;3.57;;;1.70;;
3571;SDS011;7958;53.024;12.970;2023-02-12T10:50:12;1.77;;;1.60;;
3571;SDS011;7958;53.024;12.970;2023-02-12T10:52:44;1.67;;;1.57;;
3571;SDS011;7958;53.024;12.970;2023-02-12T10:55:24;2.00;;;1.47;;
3571;SDS011;7958;53.024;12.970;2023-02-12T10:57:52;1.90;;;1.47;;
3571;SDS011;7958;53.024;12.970;2023-02-12T11:00:23;2.57;;;1.80;;
3571;SDS011;7958;53.024;12.970;2023-02-12T11:02:59;2.50;;;1.73;;
3571;SDS011;7958;53.024;12.970;2023-02-12T11:05:30;1.93;;;1.73;;
3571;SDS011;7958;53.024;12.970;2023-02-12T11:07:58;2.73;;;1.90;;
3571;SDS011;7958;53.024;12.970;2023-02-12T11:10:27;4.97;;;1.80;;
3571;SDS011;7958;53.024;12.970;2023-02-12T11:12:55;2.33;;;2.10;;
3571;SDS011;7958;53.024;12.970;2023-02-12T11:15:23;2.43;;;1.60;;
3571;SDS011;7958;53.024;12.970;2023-02-12T11:17:54;2.60;;;1.77;;
3571;SDS011;7958;53.024;12.970;2023-02-12T11:20:24;4.83;;;2.53;;
3571;SDS011;7958;53.024;12.970;2023-02-12T11:22:53;2.33;;;1.53;;
3571;SDS011;7958;53.024;12.970;2023-02-12T11:25:22;1.80;;;1.63;;
3571;SDS011;7958;53.024;12.970;2023-02-12T11:28:11;1.83;;;1.30;;
3571;SDS011;7958;53.024;12.970;2023-02-12T11:30:50;1.40;;;1.30;;
3571;SDS011;7958;53.024;12.970;2023-02-12T11:33:25;5.13;;;1.47;;
3571;SDS011;7958;53.024;12.970;2023-02-12T11:35:54;1.47;;;1.37;;
3571;SDS011;7958;53.024;12.970;2023-02-12T11:38:23;1.13;;;1.13;;
3571;SDS011;7958;53.024;12.970;2023-02-12T11:40:52;2.13;;;1.40;;
3571;SDS011;7958;53.024;12.970;2023-02-12T11:43:23;1.23;;;1.13;;
3571;SDS011;7958;53.024;12.970;2023-02-12T11:45:50;1.60;;;1.50;;
3571;SDS011;7958;53.024;12.970;2023-02-12T11:48:22;3.57;;;1.10;;
3571;SDS011;7958;53.024;12.970;2023-02-12T11:50:52;1.20;;;1.00;;
3571;SDS011;7958;53.024;12.970;2023-02-12T11:53:21;3.07;;;0.97;;
3571;SDS011;7958;53.024;12.970;2023-02-12T11:55:53;1.57;;;1.10;;
3571;SDS011;7958;53.024;12.970;2023-02-12T11:58:26;1.20;;;1.10;;
3571;SDS011;7958;53.024;12.970;2023-02-12T12:00:55;1.13;;;0.90;;
3571;SDS011;7958;53.024;12.970;2023-02-12T12:03:27;2.33;;;1.23;;
3571;SDS011;7958;53.024;12.970;2023-02-12T12:06:03;6.90;;;1.27;;
3571;SDS011;7958;53.024;12.970;2023-02-12T12:08:35;2.87;;;1.00;;
3571;SDS011;7958;53.024;12.970;2023-02-12T12:11:05;1.23;;;1.00;;
3571;SDS011;7958;53.024;12.970;2023-02-12T12:13:38;2.90;;;1.23;;
3571;SDS011;7958;53.024;12.970;2023-02-12T12:16:10;0.93;;;0.90;;
3571;SDS011;7958;53.024;12.970;2023-02-12T12:18:57;2.90;;;1.37;;
3571;SDS011;7958;53.024;12.970;2023-02-12T12:21:44;2.03;;;0.90;;
3571;SDS011;7958;53.024;12.970;2023-02-12T12:24:13;0.80;;;0.80;;
3571;SDS011;7958;53.024;12.970;2023-02-12T12:26:43;1.00;;;1.00;;
3571;SDS011;7958;53.024;12.970;2023-02-12T12:29:16;1.40;;;0.80;;
3571;SDS011;7958;53.024;12.970;2023-02-12T12:31:44;3.23;;;1.20;;
3571;SDS011;7958;53.024;12.970;2023-02-12T12:34:13;2.97;;;0.80;;
3571;SDS011;7958;53.024;12.970;2023-02-12T12:36:47;2.40;;;1.50;;
3571;SDS011;7958;53.024;12.970;2023-02-12T12:39:25;4.73;;;1.23;;
3571;SDS011;7958;53.024;12.970;2023-02-12T12:42:04;1.67;;;0.90;;
3571;SDS011;7958;53.024;12.970;2023-02-12T12:44:44;1.30;;;1.20;;
3571;SDS011;7958;53.024;12.970;2023-02-12T12:47:19;3.03;;;1.13;;
3571;SDS011;7958;53.024;12.970;2023-02-12T12:49:56;1.17;;;0.80;;
3571;SDS011;7958;53.024;12.970;2023-02-12T12:52:44;1.17;;;0.77;;
3571;SDS011;7958;53.024;12.970;2023-02-12T12:55:19;1.53;;;0.80;;
3571;SDS011;7958;53.024;12.970;2023-02-12T12:57:54;0.90;;;0.90;;
3571;SDS011;7958;53.024;12.970;2023-02-12T13:00:32;1.53;;;1.20;;
3571;SDS011;7958;53.024;12.970;2023-02-12T13:06:24;1.40;;;0.80;;
3571;SDS011;7958;53.024;12.970;2023-02-12T13:09:02;0.93;;;0.80;;
3571;SDS011;7958;53.024;12.970;2023-02-12T13:11:41;2.03;;;1.03;;
3571;SDS011;7958;53.024;12.970;2023-02-12T13:14:16;1.73;;;1.00;;
3571;SDS011;7958;53.024;12.970;2023-02-12T13:16:54;1.10;;;0.70;;
3571;SDS011;7958;53.024;12.970;2023-02-12T13:19:29;2.70;;;0.90;;
3571;SDS011;7958;53.024;12.970;2023-02-12T13:22:05;3.97;;;1.50;;
3571;SDS011;7958;53.024;12.970;2023-02-12T13:24:36;2.20;;;0.90;;
3571;SDS011;7958;53.024;12.970;2023-02-12T13:27:09;2.40;;;0.77;;
3571;SDS011;7958;53.024;12.970;2023-02-12T13:29:39;1.83;;;0.90;;
3571;SDS011;7958;53.024;12.970;2023-02-12T13:32:12;2.53;;;1.00;;
3571;SDS011;7958;53.024;12.970;2023-02-12T13:34:42;2.53;;;1.30;;
3571;SDS011;7958;53.024;12.970;2023-02-12T13:37:12;0.90;;;0.83;;
3571;SDS011;7958;53.024;12.970;2023-02-12T13:39:45;4.17;;;1.00;;
3571;SDS011;7958;53.024;12.970;2023-02-12T13:42:17;0.83;;;0.80;;
3571;SDS011;7958;53.024;12.970;2023-02-12T13:44:50;4.30;;;1.50;;
3571;SDS011;7958;53.024;12.970;2023-02-12T13:47:24;3.40;;;1.13;;
3571;SDS011;7958;53.024;12.970;2023-02-12T13:49:57;2.87;;;1.07;;
3571;SDS011;7958;53.024;12.970;2023-02-12T13:52:30;1.73;;;1.13;;
3571;SDS011;7958;53.024;12.970;2023-02-12T14:01:01;1.50;;;1.40;;
3571;SDS011;7958;53.024;12.970;2023-02-12T14:03:30;2.10;;;1.30;;
3571;SDS011;7958;53.024;12.970;2023-02-12T14:06:07;1.20;;;1.07;;
3571;SDS011;7958;53.024;12.970;2023-02-12T14:08:39;1.17;;;1.07;;
3571;SDS011;7958;53.024;12.970;2023-02-12T14:11:08;1.20;;;1.10;;
3571;SDS011;7958;53.024;12.970;2023-02-12T14:13:44;2.30;;;1.10;;
3571;SDS011;7958;53.024;12.970;2023-02-12T14:16:19;3.80;;;2.03;;
3571;SDS011;7958;53.024;12.970;2023-02-12T14:22:05;2.00;;;1.20;;
3571;SDS011;7958;53.024;12.970;2023-02-12T14:27:28;2.60;;;0.90;;
3571;SDS011;7958;53.024;12.970;2023-02-12T14:32:58;2.77;;;2.33;;
3571;SDS011;7958;53.024;12.970;2023-02-12T14:35:36;6.40;;;3.00;;
3571;SDS011;7958;53.024;12.970;2023-02-12T14:41:14;3.30;;;1.40;;
3571;SDS011;7958;53.024;12.970;2023-02-12T14:50:16;1.47;;;1.00;;
3571;SDS011;7958;53.024;12.970;2023-02-12T14:52:48;2.30;;;1.80;;
3571;SDS011;7958;53.024;12.970;2023-02-12T14:55:24;1.87;;;1.30;;
3571;SDS011;7958;53.024;12.970;2023-02-12T14:57:57;1.30;;;1.20;;
3571;SDS011;7958;53.024;12.970;2023-02-12T15:00:26;1.80;;;1.43;;
3571;SDS011;7958;53.024;12.970;2023-02-12T15:02:58;1.40;;;1.30;;
3571;SDS011;7958;53.024;12.970;2023-02-12T15:05:29;3.60;;;1.57;;
3571;SDS011;7958;53.024;12.970;2023-02-12T15:07:57;1.83;;;1.60;;
3571;SDS011;7958;53.024;12.970;2023-02-12T15:10:28;2.60;;;1.47;;
3571;SDS011;7958;53.024;12.970;2023-02-12T15:12:56;2.50;;;1.60;;
3571;SDS011;7958;53.024;12.970;2023-02-12T15:15:31;1.33;;;1.23;;
3571;SDS011;7958;53.024;12.970;2023-02-12T15:18:00;2.10;;;1.37;;
3571;SDS011;7958;53.024;12.970;2023-02-12T15:20:29;2.97;;;1.50;;
3571;SDS011;7958;53.024;12.970;2023-02-12T15:22:59;2.03;;;1.50;;
3571;SDS011;7958;53.024;12.970;2023-02-12T15:25:29;2.50;;;1.30;;
3571;SDS011;7958;53.024;12.970;2023-02-12T15:27:56;2.40;;;1.80;;
3571;SDS011;7958;53.024;12.970;2023-02-12T15:30:27;1.20;;;1.10;;
3571;SDS011;7958;53.024;12.970;2023-02-12T15:32:55;2.10;;;1.57;;
3571;SDS011;7958;53.024;12.970;2023-02-12T15:35:24;2.63;;;1.90;;
3571;SDS011;7958;53.024;12.970;2023-02-12T15:37:51;1.47;;;1.37;;
3571;SDS011;7958;53.024;12.970;2023-02-12T15:40:18;1.53;;;1.43;;
3571;SDS011;7958;53.024;12.970;2023-02-12T15:42:52;4.60;;;1.67;;